Flight Track Log - Related Links

Times and Time Zones

All times are in EDT time to prevent confusion due to time zone crossing. See the SWA34 flight status page for this flight to view local times or setup timezone preferences in your user account.

Time Position Orientation Groundspeed Altitude Reporting Facility
EDT Latitude Longitude Course Direction KTS MPH feet Rate Location/Type
Fri 08:34:11 AM 30.4736 -81.6608 90° East 170 196 1,400  Level Jacksonville Center
Fri 08:35:17 AM 30.5300 -81.6603 360° North 255 293 4,500 3,024 Climbing Jacksonville Center
Fri 08:36:18 AM 30.6053 -81.6761 350° North 274 315 7,800 2,976 Climbing Jacksonville Center
Fri 08:37:20 AM 30.6764 -81.6897 351° North 292 336 10,600 2,852 Climbing Jacksonville Center
Fri 08:38:20 AM 30.7642 -81.6911 359° North 314 361 13,600 2,950 Climbing Jacksonville Center
Fri 08:39:20 AM 30.8514 -81.6583 18° North 319 367 16,500 2,250 Climbing Jacksonville Center
Fri 08:40:20 AM 30.9472 -81.6258 16° North 327 376 18,100 2,150 Climbing Jacksonville Center
Fri 08:41:20 AM 31.0511 -81.5881 17° North 362 417 20,800 2,450 Climbing Jacksonville Center
Fri 08:42:20 AM 31.1594 -81.5550 15° North 385 443 23,000 2,100 Climbing Jacksonville Center
Fri 08:43:20 AM 31.2697 -81.5144 17° North 398 458 25,000 2,100 Climbing Jacksonville Center
Fri 08:44:20 AM 31.3819 -81.4689 19° North 415 478 27,200 1,950 Climbing Jacksonville Center
Fri 08:45:20 AM 31.5086 -81.4256 16° North 429 494 28,900 1,450 Climbing Jacksonville Center
Fri 08:46:20 AM 31.6272 -81.3847 16° North 435 501 30,100 1,300 Climbing Jacksonville Center
Fri 08:47:20 AM 31.7394 -81.3461 16° North 450 518 31,500 1,650 Climbing Jacksonville Center
Fri 08:48:20 AM 31.8706 -81.3000 17° North 455 524 33,400 1,650 Climbing Jacksonville Center
Fri 08:49:20 AM 31.9719 -81.2394 27° Northeast 455 524 34,800 800 Climbing Jacksonville Center
Fri 08:50:20 AM 32.0542 -81.1350 47° Northeast 434 499 35,000 400 Climbing Jacksonville Center
Fri 08:51:20 AM 32.1464 -81.0181 47° Northeast 434 499 35,600 850 Climbing Jacksonville Center
Fri 08:52:20 AM 32.2200 -80.9231 47° Northeast 429 494 36,700 700 Climbing Jacksonville Center
Fri 08:53:20 AM 32.3103 -80.8081 47° Northeast 424 488 37,000 150 Climbing Jacksonville Center
Fri 08:54:20 AM 32.3836 -80.7106 48° Northeast 424 488 37,000  Level Jacksonville Center
Fri 08:55:20 AM 32.4631 -80.6028 49° Northeast 424 488 37,000  Level Jacksonville Center
Fri 08:56:20 AM 32.5467 -80.4947 47° Northeast 424 488 37,000  Level Jacksonville Center
Fri 08:57:20 AM 32.6281 -80.3889 48° Northeast 424 488 37,000  Level Jacksonville Center
Fri 08:58:20 AM 32.7117 -80.2781 48° Northeast 424 488 37,000  Level Jacksonville Center
Fri 08:59:20 AM 32.7906 -80.1694 49° Northeast 424 488 37,000  Level Jacksonville Center
Fri 09:00:20 AM 32.8758 -80.0581 48° Northeast 430 495 37,000  Level Jacksonville Center
Fri 09:01:20 AM 32.9697 -79.9586 42° Northeast 435 501 37,000  Level Jacksonville Center
Fri 09:02:20 AM 33.0778 -79.8583 38° Northeast 449 517 37,000  Level Jacksonville Center
Fri 09:03:20 AM 33.1778 -79.7606 39° Northeast 449 517 37,000  Level Jacksonville Center
Fri 09:04:20 AM 33.2756 -79.6678 38° Northeast 449 517 37,000  Level Jacksonville Center
Fri 09:05:20 AM 33.3714 -79.5747 39° Northeast 449 517 37,000  Level Jacksonville Center
Fri 09:06:20 AM 33.4689 -79.4814 39° Northeast 449 517 37,000  Level Jacksonville Center
Fri 09:07:20 AM 33.5644 -79.3856 40° Northeast 449 517 37,000  Level Jacksonville Center
Fri 09:08:20 AM 33.6619 -79.2894 39° Northeast 449 517 37,000  Level Jacksonville Center
Fri 09:09:20 AM 33.7553 -79.1981 39° Northeast 443 510 37,000 -50 Level Jacksonville Center
Fri 09:10:20 AM 33.8444 -79.1119 39° Northeast 443 510 36,900  Descending Jacksonville Center
Fri 09:12:48 AM 34.0958 -78.8594 40° Northeast 439 505 37,000  Climbing Washington Center
Fri 09:13:49 AM 34.1944 -78.7606 40° Northeast 445 512 36,900  Descending Washington Center
Fri 09:14:49 AM 34.2953 -78.6639 38° Northeast 445 512 37,000 51 Climbing Washington Center
Fri 09:15:47 AM 34.3958 -78.5644 39° Northeast 456 525 37,000  Level Washington Center
Fri 09:16:47 AM 34.4942 -78.4647 40° Northeast 456 525 37,000 -397 Level Washington Center
Fri 09:17:48 AM 34.5925 -78.3647 40° Northeast 456 525 36,200 -885 Descending Washington Center
Fri 09:18:49 AM 34.6906 -78.2669 39° Northeast 461 531 35,200 -857 Descending Washington Center
Fri 09:19:47 AM 34.7783 -78.1739 41° Northeast 461 531 34,500 -908 Descending Washington Center
Fri 09:20:48 AM 34.8722 -78.0731 41° Northeast 461 531 33,400 -1,869 Descending Washington Center
Fri 09:21:49 AM 34.9661 -77.9744 41° Northeast 450 518 30,700 -2,288 Descending Washington Center
Fri 09:22:46 AM 35.0617 -77.8783 39° Northeast 444 511 28,900 -1,373 Descending Washington Center
Fri 09:23:47 AM 35.1556 -77.7794 41° Northeast 439 505 28,000 -934 Descending Washington Center
Fri 09:24:48 AM 35.2489 -77.6828 40° Northeast 439 505 27,000 -992 Descending Washington Center
Fri 09:25:48 AM 35.3403 -77.5908 39° Northeast 434 499 26,000 -1,000 Descending Washington Center
Fri 09:26:48 AM 35.4356 -77.5117 34° Northeast 429 494 25,000 -1,041 Descending Washington Center
Fri 09:27:49 AM 35.5344 -77.4475 28° Northeast 411 473 23,900 -1,008 Descending Washington Center
Fri 09:28:47 AM 35.6314 -77.3836 28° Northeast 399 459 23,000 -454 Descending Washington Center
Fri 09:29:48 AM 35.7222 -77.3214 29° Northeast 386 444 23,000  Level Washington Center
Fri 09:30:49 AM 35.8169 -77.2569 29° Northeast 381 438 23,000  Level Washington Center
Fri 09:31:49 AM 35.9117 -77.1947 28° Northeast 381 438 23,000  Level Washington Center
Fri 09:32:47 AM 36.0003 -77.1247 33° Northeast 381 438 23,000 -508 Level Washington Center
Fri 09:33:47 AM 36.0950 -77.0622 28° Northeast 381 438 22,000 -1,438 Descending Washington Center
Fri 09:34:48 AM 36.1811 -77.0022 29° Northeast 375 432 20,100 -2,017 Descending Washington Center
Fri 09:35:43 AM 36.2672 -76.9469 27° Northeast 346 398 18,100 -1,899 Descending Washington Center
Fri 09:36:07 AM 36.2989 -76.9244 30° Northeast 338 389 17,600 -1,688 Descending Washington Center
Fri 09:36:47 AM 36.3472 -76.8917 29° Northeast 343 395 16,300 -2,164 Descending Washington Center
Fri 09:37:08 AM 36.3767 -76.8717 29° Northeast 326 375 15,400 -2,100 Descending Washington Center
Fri 09:37:47 AM 36.4125 -76.8206 49° Northeast 323 372 14,200 -2,100 Descending Washington Center
Fri 09:38:08 AM 36.4381 -76.7900 44° Northeast 317 365 13,300 -2,032 Descending Washington Center
Fri 09:38:49 AM 36.4719 -76.7389 50° Northeast 311 358 12,100 -2,419 Descending Washington Center
Fri 09:39:10 AM 36.4950 -76.7056 49° Northeast 299 344 10,800 -2,100 Descending Washington Center
Fri 09:39:49 AM 36.5247 -76.6647 48° Northeast 299 344 10,000 -1,500 Descending Washington Center
Fri 09:40:10 AM 36.5478 -76.6364 45° Northeast 270 311 9,300 -1,368 Descending Washington Center
Fri 09:40:46 AM 36.5711 -76.5928 56° Northeast 276 318 8,700 -1,552 Descending Washington Center
Fri 09:41:08 AM 36.5944 -76.5647 44° Northeast 254 292 7,800 -1,742 Descending Washington Center
Fri 09:41:48 AM 36.6156 -76.5286 54° Northeast 261 300 6,900 -2,063 Descending Washington Center
Fri 09:42:12 AM 36.6386 -76.4978 47° Northeast 251 289 5,600 -1,869 Descending Washington Center
Fri 09:42:49 AM 36.6619 -76.4619 51° Northeast 254 292 5,000 -1,377 Descending Washington Center
Fri 09:43:13 AM 36.6831 -76.4311 50° Northeast 244 281 4,200 6,207 Descending Washington Center
Fri 09:43:47 AM 36.7083 -76.3925 51° Northeast 246 283 11,000 -1,875 Climbing Washington Center
Fri 09:44:17 AM 36.7294 -76.3669 44° Northeast 236 272 2,200 -9,500 Descending Washington Center
Fri 09:44:47 AM 36.7567 -76.3358 42° Northeast 240 276 1,500 -689 Descending Washington Center
Fri 09:45:18 AM 36.7797 -76.3181 32° Northeast 216 249 1,500 65 Level Washington Center
Fri 09:46:19 AM 36.8217 -76.2769 38° Northeast 163 188 1,600 -259 Climbing Washington Center
Fri 09:47:14 AM 36.8511 -76.2461 40° Northeast 133 153 1,000 -655 Descending Washington Center

Login

Don't have an account? Register now (free) for customized features, flight alerts, and more!